sensor_id;sensor_type;location;lat;lon;timestamp;temperature;humidity
16867;DHT22;8550;52.596;13.320;2022-12-07T00:02:19;3.10;99.90
16867;DHT22;8550;52.596;13.320;2022-12-07T00:07:22;3.10;99.90
16867;DHT22;8550;52.596;13.320;2022-12-07T00:12:24;3.00;99.90
16867;DHT22;8550;52.596;13.320;2022-12-07T00:17:27;2.90;99.90
16867;DHT22;8550;52.596;13.320;2022-12-07T00:22:29;2.90;99.90
16867;DHT22;8550;52.596;13.320;2022-12-07T00:27:31;2.80;99.90
16867;DHT22;8550;52.596;13.320;2022-12-07T00:32:34;2.80;99.90
16867;DHT22;8550;52.596;13.320;2022-12-07T00:37:36;2.80;99.90
16867;DHT22;8550;52.596;13.320;2022-12-07T00:42:38;2.80;99.90
16867;DHT22;8550;52.596;13.320;2022-12-07T00:47:41;2.80;99.90
16867;DHT22;8550;52.596;13.320;2022-12-07T00:52:43;2.70;99.90
16867;DHT22;8550;52.596;13.320;2022-12-07T00:57:45;2.50;99.90
16867;DHT22;8550;52.596;13.320;2022-12-07T01:02:48;2.40;99.90
16867;DHT22;8550;52.596;13.320;2022-12-07T01:07:50;2.40;99.90
16867;DHT22;8550;52.596;13.320;2022-12-07T01:12:52;2.40;99.90
16867;DHT22;8550;52.596;13.320;2022-12-07T01:17:56;2.40;99.90
16867;DHT22;8550;52.596;13.320;2022-12-07T01:22:58;2.60;99.90
16867;DHT22;8550;52.596;13.320;2022-12-07T01:28:00;2.40;99.90
16867;DHT22;8550;52.596;13.320;2022-12-07T01:33:03;2.40;99.90
16867;DHT22;8550;52.596;13.320;2022-12-07T01:38:05;2.30;99.90
16867;DHT22;8550;52.596;13.320;2022-12-07T01:43:14;2.30;99.90
16867;DHT22;8550;52.596;13.320;2022-12-07T01:48:21;2.50;99.90
16867;DHT22;8550;52.596;13.320;2022-12-07T01:53:26;2.50;99.90
16867;DHT22;8550;52.596;13.320;2022-12-07T01:58:29;2.60;99.90
16867;DHT22;8550;52.596;13.320;2022-12-07T02:03:36;2.50;99.90
16867;DHT22;8550;52.596;13.320;2022-12-07T02:08:40;2.50;99.90
16867;DHT22;8550;52.596;13.320;2022-12-07T02:13:43;2.40;99.90
16867;DHT22;8550;52.596;13.320;2022-12-07T02:19:10;2.30;99.90
16867;DHT22;8550;52.596;13.320;2022-12-07T02:24:36;2.30;99.90
16867;DHT22;8550;52.596;13.320;2022-12-07T02:29:47;2.30;99.90
16867;DHT22;8550;52.596;13.320;2022-12-07T02:34:56;2.20;99.90
16867;DHT22;8550;52.596;13.320;2022-12-07T02:40:05;2.20;99.90
16867;DHT22;8550;52.596;13.320;2022-12-07T02:45:14;2.20;99.90
16867;DHT22;8550;52.596;13.320;2022-12-07T02:50:18;2.30;99.90
16867;DHT22;8550;52.596;13.320;2022-12-07T02:55:26;2.40;99.90
16867;DHT22;8550;52.596;13.320;2022-12-07T03:00:34;2.30;99.90
16867;DHT22;8550;52.596;13.320;2022-12-07T03:05:53;2.20;99.90
16867;DHT22;8550;52.596;13.320;2022-12-07T03:11:02;2.20;99.90
16867;DHT22;8550;52.596;13.320;2022-12-07T03:16:09;2.20;99.90
16867;DHT22;8550;52.596;13.320;2022-12-07T03:21:19;2.20;99.90
16867;DHT22;8550;52.596;13.320;2022-12-07T03:26:26;2.30;99.90
16867;DHT22;8550;52.596;13.320;2022-12-07T03:31:35;2.40;99.90
16867;DHT22;8550;52.596;13.320;2022-12-07T03:36:41;2.50;99.90
16867;DHT22;8550;52.596;13.320;2022-12-07T03:41:46;2.50;99.90
16867;DHT22;8550;52.596;13.320;2022-12-07T03:46:55;2.60;99.90
16867;DHT22;8550;52.596;13.320;2022-12-07T03:52:06;2.60;99.90
16867;DHT22;8550;52.596;13.320;2022-12-07T03:57:11;2.60;99.90
16867;DHT22;8550;52.596;13.320;2022-12-07T04:02:15;2.60;99.90
16867;DHT22;8550;52.596;13.320;2022-12-07T04:07:17;2.60;99.90
16867;DHT22;8550;52.596;13.320;2022-12-07T04:12:19;2.60;99.90
16867;DHT22;8550;52.596;13.320;2022-12-07T04:17:23;2.70;99.90
16867;DHT22;8550;52.596;13.320;2022-12-07T04:22:25;2.70;99.90
16867;DHT22;8550;52.596;13.320;2022-12-07T04:27:26;2.70;99.90
16867;DHT22;8550;52.596;13.320;2022-12-07T04:32:30;2.70;99.90
16867;DHT22;8550;52.596;13.320;2022-12-07T04:37:32;2.70;99.90
16867;DHT22;8550;52.596;13.320;2022-12-07T04:42:34;2.60;99.90
16867;DHT22;8550;52.596;13.320;2022-12-07T04:47:37;2.70;99.90
16867;DHT22;8550;52.596;13.320;2022-12-07T04:52:39;2.70;99.90
16867;DHT22;8550;52.596;13.320;2022-12-07T04:57:41;2.70;99.90
16867;DHT22;8550;52.596;13.320;2022-12-07T05:02:44;2.80;99.90
16867;DHT22;8550;52.596;13.320;2022-12-07T05:07:46;2.80;99.90
16867;DHT22;8550;52.596;13.320;2022-12-07T05:12:48;2.90;99.90
16867;DHT22;8550;52.596;13.320;2022-12-07T05:17:52;3.00;99.90
16867;DHT22;8550;52.596;13.320;2022-12-07T05:22:53;3.00;99.90
16867;DHT22;8550;52.596;13.320;2022-12-07T05:27:56;3.00;99.90
16867;DHT22;8550;52.596;13.320;2022-12-07T05:33:21;3.10;99.90
16867;DHT22;8550;52.596;13.320;2022-12-07T05:38:23;3.20;99.90
16867;DHT22;8550;52.596;13.320;2022-12-07T05:43:25;3.20;99.90
16867;DHT22;8550;52.596;13.320;2022-12-07T05:48:29;3.30;99.90
16867;DHT22;8550;52.596;13.320;2022-12-07T05:53:30;3.30;99.90
16867;DHT22;8550;52.596;13.320;2022-12-07T05:58:32;3.40;99.90
16867;DHT22;8550;52.596;13.320;2022-12-07T06:03:53;3.40;99.90
16867;DHT22;8550;52.596;13.320;2022-12-07T06:08:55;3.50;99.90
16867;DHT22;8550;52.596;13.320;2022-12-07T06:13:57;3.50;99.90
16867;DHT22;8550;52.596;13.320;2022-12-07T06:19:00;3.50;99.90
16867;DHT22;8550;52.596;13.320;2022-12-07T06:24:02;3.50;99.90
16867;DHT22;8550;52.596;13.320;2022-12-07T06:29:04;3.50;99.90
16867;DHT22;8550;52.596;13.320;2022-12-07T06:34:10;3.50;99.90
16867;DHT22;8550;52.596;13.320;2022-12-07T06:39:13;3.50;99.90
16867;DHT22;8550;52.596;13.320;2022-12-07T06:44:15;3.50;99.90
16867;DHT22;8550;52.596;13.320;2022-12-07T06:49:18;3.60;99.90
16867;DHT22;8550;52.596;13.320;2022-12-07T06:54:20;3.60;99.90
16867;DHT22;8550;52.596;13.320;2022-12-07T06:59:23;3.60;99.90
16867;DHT22;8550;52.596;13.320;2022-12-07T07:04:26;3.60;99.90
16867;DHT22;8550;52.596;13.320;2022-12-07T07:09:28;3.70;99.90
16867;DHT22;8550;52.596;13.320;2022-12-07T07:14:30;3.70;99.90
16867;DHT22;8550;52.596;13.320;2022-12-07T07:19:33;3.70;99.90
16867;DHT22;8550;52.596;13.320;2022-12-07T07:24:35;3.70;99.90
16867;DHT22;8550;52.596;13.320;2022-12-07T07:29:37;3.80;99.90
16867;DHT22;8550;52.596;13.320;2022-12-07T07:34:41;3.80;99.90
16867;DHT22;8550;52.596;13.320;2022-12-07T07:39:42;3.80;99.90
16867;DHT22;8550;52.596;13.320;2022-12-07T07:44:44;3.80;99.90
16867;DHT22;8550;52.596;13.320;2022-12-07T07:49:48;3.80;99.90
16867;DHT22;8550;52.596;13.320;2022-12-07T07:54:50;3.90;99.90
16867;DHT22;8550;52.596;13.320;2022-12-07T07:59:53;3.90;99.90
16867;DHT22;8550;52.596;13.320;2022-12-07T08:04:56;3.90;99.90
16867;DHT22;8550;52.596;13.320;2022-12-07T08:09:58;4.00;99.90
16867;DHT22;8550;52.596;13.320;2022-12-07T08:15:00;4.00;99.90
16867;DHT22;8550;52.596;13.320;2022-12-07T08:20:05;4.00;99.90
16867;DHT22;8550;52.596;13.320;2022-12-07T08:25:07;4.00;99.90
16867;DHT22;8550;52.596;13.320;2022-12-07T08:30:10;4.00;99.90
16867;DHT22;8550;52.596;13.320;2022-12-07T08:35:13;4.00;99.90
16867;DHT22;8550;52.596;13.320;2022-12-07T08:40:15;4.00;99.90
16867;DHT22;8550;52.596;13.320;2022-12-07T08:45:20;4.00;99.90
16867;DHT22;8550;52.596;13.320;2022-12-07T08:50:24;4.00;99.90
16867;DHT22;8550;52.596;13.320;2022-12-07T08:55:27;4.00;99.90
16867;DHT22;8550;52.596;13.320;2022-12-07T09:00:29;4.00;99.90
16867;DHT22;8550;52.596;13.320;2022-12-07T09:05:33;4.00;99.90
16867;DHT22;8550;52.596;13.320;2022-12-07T09:10:35;4.10;99.90
16867;DHT22;8550;52.596;13.320;2022-12-07T09:15:38;4.20;99.90
16867;DHT22;8550;52.596;13.320;2022-12-07T09:20:41;4.20;99.90
16867;DHT22;8550;52.596;13.320;2022-12-07T09:25:43;4.10;99.90
16867;DHT22;8550;52.596;13.320;2022-12-07T09:30:46;4.00;99.90
16867;DHT22;8550;52.596;13.320;2022-12-07T09:35:50;4.00;99.90
16867;DHT22;8550;52.596;13.320;2022-12-07T09:40:54;4.00;99.90
16867;DHT22;8550;52.596;13.320;2022-12-07T09:45:56;4.10;99.90
16867;DHT22;8550;52.596;13.320;2022-12-07T09:51:01;4.00;99.90
16867;DHT22;8550;52.596;13.320;2022-12-07T09:56:04;3.90;99.90
16867;DHT22;8550;52.596;13.320;2022-12-07T10:01:11;4.00;99.90
16867;DHT22;8550;52.596;13.320;2022-12-07T10:06:16;3.90;99.90
16867;DHT22;8550;52.596;13.320;2022-12-07T10:11:18;3.90;99.90
16867;DHT22;8550;52.596;13.320;2022-12-07T10:16:35;3.90;99.90
16867;DHT22;8550;52.596;13.320;2022-12-07T10:21:40;3.80;99.90
16867;DHT22;8550;52.596;13.320;2022-12-07T10:27:38;3.80;99.90
16867;DHT22;8550;52.596;13.320;2022-12-07T10:32:53;4.00;99.90
16867;DHT22;8550;52.596;13.320;2022-12-07T10:37:59;4.30;99.90
16867;DHT22;8550;52.596;13.320;2022-12-07T10:43:04;4.00;99.90
16867;DHT22;8550;52.596;13.320;2022-12-07T10:48:10;4.20;99.90
16867;DHT22;8550;52.596;13.320;2022-12-07T10:53:32;4.10;99.90
16867;DHT22;8550;52.596;13.320;2022-12-07T10:58:52;4.00;99.90
16867;DHT22;8550;52.596;13.320;2022-12-07T11:10:07;4.10;99.90
16867;DHT22;8550;52.596;13.320;2022-12-07T11:15:16;4.10;99.90
16867;DHT22;8550;52.596;13.320;2022-12-07T11:20:39;4.20;99.90
16867;DHT22;8550;52.596;13.320;2022-12-07T11:25:50;4.20;99.90
16867;DHT22;8550;52.596;13.320;2022-12-07T11:31:00;4.40;99.90
16867;DHT22;8550;52.596;13.320;2022-12-07T11:36:14;4.40;99.90
16867;DHT22;8550;52.596;13.320;2022-12-07T11:41:23;4.50;99.90
16867;DHT22;8550;52.596;13.320;2022-12-07T11:46:33;4.50;99.90
16867;DHT22;8550;52.596;13.320;2022-12-07T11:51:39;4.60;99.90
16867;DHT22;8550;52.596;13.320;2022-12-07T11:56:44;4.50;99.90
16867;DHT22;8550;52.596;13.320;2022-12-07T12:01:53;4.60;99.90
16867;DHT22;8550;52.596;13.320;2022-12-07T12:06:56;4.60;99.90
16867;DHT22;8550;52.596;13.320;2022-12-07T12:18:00;4.70;99.90
16867;DHT22;8550;52.596;13.320;2022-12-07T12:23:12;4.80;99.90
16867;DHT22;8550;52.596;13.320;2022-12-07T12:28:23;4.80;99.90
16867;DHT22;8550;52.596;13.320;2022-12-07T12:33:28;4.80;99.90
16867;DHT22;8550;52.596;13.320;2022-12-07T12:38:32;4.80;99.90
16867;DHT22;8550;52.596;13.320;2022-12-07T12:43:51;4.90;99.90
16867;DHT22;8550;52.596;13.320;2022-12-07T12:48:54;4.80;99.90
16867;DHT22;8550;52.596;13.320;2022-12-07T12:54:04;4.70;99.90
16867;DHT22;8550;52.596;13.320;2022-12-07T12:59:25;4.70;99.90
16867;DHT22;8550;52.596;13.320;2022-12-07T13:04:49;4.70;99.90
16867;DHT22;8550;52.596;13.320;2022-12-07T13:09:52;4.80;99.90
16867;DHT22;8550;52.596;13.320;2022-12-07T13:14:57;4.80;99.90
16867;DHT22;8550;52.596;13.320;2022-12-07T13:20:00;4.70;99.90
16867;DHT22;8550;52.596;13.320;2022-12-07T13:25:07;4.70;99.90
16867;DHT22;8550;52.596;13.320;2022-12-07T13:30:17;4.70;99.90
16867;DHT22;8550;52.596;13.320;2022-12-07T13:35:34;4.60;99.90
16867;DHT22;8550;52.596;13.320;2022-12-07T13:40:37;4.70;99.90
16867;DHT22;8550;52.596;13.320;2022-12-07T13:45:42;4.70;99.90
16867;DHT22;8550;52.596;13.320;2022-12-07T13:50:54;4.70;99.90
16867;DHT22;8550;52.596;13.320;2022-12-07T13:55:58;4.70;99.90
16867;DHT22;8550;52.596;13.320;2022-12-07T14:01:02;4.70;99.90
16867;DHT22;8550;52.596;13.320;2022-12-07T14:06:23;4.70;99.90
16867;DHT22;8550;52.596;13.320;2022-12-07T14:11:31;4.70;99.90
16867;DHT22;8550;52.596;13.320;2022-12-07T14:16:36;4.70;99.90
16867;DHT22;8550;52.596;13.320;2022-12-07T14:21:39;4.70;99.90
16867;DHT22;8550;52.596;13.320;2022-12-07T14:26:41;4.70;99.90
16867;DHT22;8550;52.596;13.320;2022-12-07T14:31:44;4.70;99.90
16867;DHT22;8550;52.596;13.320;2022-12-07T14:36:46;4.70;99.90
16867;DHT22;8550;52.596;13.320;2022-12-07T14:41:48;4.60;99.90
16867;DHT22;8550;52.596;13.320;2022-12-07T14:46:55;4.60;99.90
16867;DHT22;8550;52.596;13.320;2022-12-07T14:51:58;4.50;99.90
16867;DHT22;8550;52.596;13.320;2022-12-07T14:57:00;4.30;99.90
16867;DHT22;8550;52.596;13.320;2022-12-07T15:02:04;4.10;99.90
16867;DHT22;8550;52.596;13.320;2022-12-07T15:07:10;4.10;99.90
16867;DHT22;8550;52.596;13.320;2022-12-07T15:12:14;4.10;99.90
16867;DHT22;8550;52.596;13.320;2022-12-07T15:17:17;4.10;99.90
16867;DHT22;8550;52.596;13.320;2022-12-07T15:22:19;4.10;99.90
16867;DHT22;8550;52.596;13.320;2022-12-07T15:27:21;4.00;99.90
16867;DHT22;8550;52.596;13.320;2022-12-07T15:32:24;4.00;99.90
16867;DHT22;8550;52.596;13.320;2022-12-07T15:37:26;3.90;99.90
16867;DHT22;8550;52.596;13.320;2022-12-07T15:42:28;3.90;99.90
16867;DHT22;8550;52.596;13.320;2022-12-07T15:47:33;4.00;99.90
16867;DHT22;8550;52.596;13.320;2022-12-07T15:52:37;4.00;99.90
16867;DHT22;8550;52.596;13.320;2022-12-07T15:57:39;4.00;99.90
16867;DHT22;8550;52.596;13.320;2022-12-07T16:02:43;4.00;99.90
16867;DHT22;8550;52.596;13.320;2022-12-07T16:07:47;4.00;99.90
16867;DHT22;8550;52.596;13.320;2022-12-07T16:12:49;4.00;99.90
16867;DHT22;8550;52.596;13.320;2022-12-07T16:17:52;4.00;99.90
16867;DHT22;8550;52.596;13.320;2022-12-07T16:22:56;3.90;99.90
16867;DHT22;8550;52.596;13.320;2022-12-07T16:27:57;3.80;99.90
16867;DHT22;8550;52.596;13.320;2022-12-07T16:33:01;3.70;99.90
16867;DHT22;8550;52.596;13.320;2022-12-07T16:38:03;3.60;99.90
16867;DHT22;8550;52.596;13.320;2022-12-07T16:43:05;3.40;99.90
16867;DHT22;8550;52.596;13.320;2022-12-07T16:48:08;3.30;99.90
16867;DHT22;8550;52.596;13.320;2022-12-07T16:53:10;3.20;99.90
16867;DHT22;8550;52.596;13.320;2022-12-07T16:58:14;3.10;99.90
16867;DHT22;8550;52.596;13.320;2022-12-07T17:03:17;3.00;99.90
16867;DHT22;8550;52.596;13.320;2022-12-07T17:08:19;2.90;99.90
16867;DHT22;8550;52.596;13.320;2022-12-07T17:13:21;2.90;99.90
16867;DHT22;8550;52.596;13.320;2022-12-07T17:18:42;2.90;99.90
16867;DHT22;8550;52.596;13.320;2022-12-07T17:23:44;2.90;99.90
16867;DHT22;8550;52.596;13.320;2022-12-07T17:28:46;2.90;99.90
16867;DHT22;8550;52.596;13.320;2022-12-07T17:33:50;2.80;99.90
16867;DHT22;8550;52.596;13.320;2022-12-07T17:38:52;2.80;99.90
16867;DHT22;8550;52.596;13.320;2022-12-07T17:43:54;2.70;99.90
16867;DHT22;8550;52.596;13.320;2022-12-07T17:48:58;2.80;99.90
16867;DHT22;8550;52.596;13.320;2022-12-07T17:54:00;2.70;99.90
16867;DHT22;8550;52.596;13.320;2022-12-07T17:59:02;2.60;99.90
16867;DHT22;8550;52.596;13.320;2022-12-07T18:04:07;2.50;99.90
16867;DHT22;8550;52.596;13.320;2022-12-07T18:09:10;2.50;99.90
16867;DHT22;8550;52.596;13.320;2022-12-07T18:14:12;2.40;99.90
16867;DHT22;8550;52.596;13.320;2022-12-07T18:19:16;2.40;99.90
16867;DHT22;8550;52.596;13.320;2022-12-07T18:24:18;2.30;99.90
16867;DHT22;8550;52.596;13.320;2022-12-07T18:29:20;2.20;99.90
16867;DHT22;8550;52.596;13.320;2022-12-07T18:34:23;2.10;99.90
16867;DHT22;8550;52.596;13.320;2022-12-07T18:39:28;2.10;99.90
16867;DHT22;8550;52.596;13.320;2022-12-07T18:44:34;2.20;99.90
16867;DHT22;8550;52.596;13.320;2022-12-07T18:49:38;2.20;99.90
16867;DHT22;8550;52.596;13.320;2022-12-07T18:54:40;2.20;99.90
16867;DHT22;8550;52.596;13.320;2022-12-07T18:59:42;2.00;99.90
16867;DHT22;8550;52.596;13.320;2022-12-07T19:04:49;2.00;99.90
16867;DHT22;8550;52.596;13.320;2022-12-07T19:09:51;2.00;99.90
16867;DHT22;8550;52.596;13.320;2022-12-07T19:14:53;1.90;99.90
16867;DHT22;8550;52.596;13.320;2022-12-07T19:19:56;1.90;99.90
16867;DHT22;8550;52.596;13.320;2022-12-07T19:24:58;1.90;99.90
16867;DHT22;8550;52.596;13.320;2022-12-07T19:30:01;1.80;99.90
16867;DHT22;8550;52.596;13.320;2022-12-07T19:35:04;1.80;99.90
16867;DHT22;8550;52.596;13.320;2022-12-07T19:40:08;1.70;99.90
16867;DHT22;8550;52.596;13.320;2022-12-07T19:45:10;1.70;99.90
16867;DHT22;8550;52.596;13.320;2022-12-07T19:50:13;1.70;99.90
16867;DHT22;8550;52.596;13.320;2022-12-07T19:55:16;1.60;99.90
16867;DHT22;8550;52.596;13.320;2022-12-07T20:00:18;1.60;99.90
16867;DHT22;8550;52.596;13.320;2022-12-07T20:05:22;1.60;99.90
16867;DHT22;8550;52.596;13.320;2022-12-07T20:10:25;1.50;99.90
16867;DHT22;8550;52.596;13.320;2022-12-07T20:15:26;1.50;99.90
16867;DHT22;8550;52.596;13.320;2022-12-07T20:20:30;1.70;99.90
16867;DHT22;8550;52.596;13.320;2022-12-07T20:25:34;1.70;99.90
16867;DHT22;8550;52.596;13.320;2022-12-07T20:30:37;1.60;99.90
16867;DHT22;8550;52.596;13.320;2022-12-07T20:35:40;1.60;99.90
16867;DHT22;8550;52.596;13.320;2022-12-07T20:40:46;1.60;99.90
16867;DHT22;8550;52.596;13.320;2022-12-07T20:45:49;1.60;99.90
16867;DHT22;8550;52.596;13.320;2022-12-07T20:50:53;1.70;99.90
16867;DHT22;8550;52.596;13.320;2022-12-07T20:55:55;1.90;99.90
16867;DHT22;8550;52.596;13.320;2022-12-07T21:00:59;1.90;99.90
16867;DHT22;8550;52.596;13.320;2022-12-07T21:06:03;1.80;99.90
16867;DHT22;8550;52.596;13.320;2022-12-07T21:11:08;1.60;99.90
16867;DHT22;8550;52.596;13.320;2022-12-07T21:16:11;1.50;99.90
16867;DHT22;8550;52.596;13.320;2022-12-07T21:21:17;1.40;99.90
16867;DHT22;8550;52.596;13.320;2022-12-07T21:26:20;1.50;99.90
16867;DHT22;8550;52.596;13.320;2022-12-07T21:31:22;1.50;99.90
16867;DHT22;8550;52.596;13.320;2022-12-07T21:36:26;1.40;99.90
16867;DHT22;8550;52.596;13.320;2022-12-07T21:41:30;1.30;99.90
16867;DHT22;8550;52.596;13.320;2022-12-07T21:46:34;1.20;99.90
16867;DHT22;8550;52.596;13.320;2022-12-07T21:51:38;1.20;99.90
16867;DHT22;8550;52.596;13.320;2022-12-07T21:56:41;1.20;99.90
16867;DHT22;8550;52.596;13.320;2022-12-07T22:01:44;1.20;99.90
16867;DHT22;8550;52.596;13.320;2022-12-07T22:06:49;1.20;99.90
16867;DHT22;8550;52.596;13.320;2022-12-07T22:11:51;1.10;99.90
16867;DHT22;8550;52.596;13.320;2022-12-07T22:16:55;1.00;99.90
16867;DHT22;8550;52.596;13.320;2022-12-07T22:21:59;1.00;99.90
16867;DHT22;8550;52.596;13.320;2022-12-07T22:27:02;1.20;99.90
16867;DHT22;8550;52.596;13.320;2022-12-07T22:32:04;1.40;99.90
16867;DHT22;8550;52.596;13.320;2022-12-07T22:37:07;1.50;99.90
16867;DHT22;8550;52.596;13.320;2022-12-07T22:42:09;1.50;99.90
16867;DHT22;8550;52.596;13.320;2022-12-07T22:47:12;1.30;99.90
16867;DHT22;8550;52.596;13.320;2022-12-07T22:52:15;1.30;99.90
16867;DHT22;8550;52.596;13.320;2022-12-07T22:57:17;1.30;99.90
16867;DHT22;8550;52.596;13.320;2022-12-07T23:02:20;1.20;99.90
16867;DHT22;8550;52.596;13.320;2022-12-07T23:07:23;1.10;99.90
16867;DHT22;8550;52.596;13.320;2022-12-07T23:12:25;1.10;99.90
16867;DHT22;8550;52.596;13.320;2022-12-07T23:17:45;1.10;99.90
16867;DHT22;8550;52.596;13.320;2022-12-07T23:22:48;1.10;99.90
16867;DHT22;8550;52.596;13.320;2022-12-07T23:27:50;1.10;99.90
16867;DHT22;8550;52.596;13.320;2022-12-07T23:32:52;1.30;99.90
16867;DHT22;8550;52.596;13.320;2022-12-07T23:37:55;1.30;99.90
16867;DHT22;8550;52.596;13.320;2022-12-07T23:42:57;1.30;99.90
16867;DHT22;8550;52.596;13.320;2022-12-07T23:47:59;1.40;99.90
16867;DHT22;8550;52.596;13.320;2022-12-07T23:53:02;1.40;99.90
16867;DHT22;8550;52.596;13.320;2022-12-07T23:58:08;1.40;99.90
